createdAt,value
2022-11-24T00:00:38.112Z,2.53
2022-11-24T00:03:05.716Z,2.67
2022-11-24T00:05:35.943Z,2.10
2022-11-24T00:08:03.652Z,2.90
2022-11-24T00:10:31.144Z,2.30
2022-11-24T00:12:58.764Z,2.67
2022-11-24T00:15:26.358Z,2.85
2022-11-24T00:17:55.414Z,3.10
2022-11-24T00:20:22.946Z,2.40
2022-11-24T00:22:50.455Z,2.47
2022-11-24T00:25:18.170Z,3.55
2022-11-24T00:27:45.727Z,2.80
2022-11-24T00:30:13.656Z,3.45
2022-11-24T00:32:41.138Z,2.60
2022-11-24T00:35:10.089Z,3.15
2022-11-24T00:37:37.582Z,3.17
2022-11-24T00:40:06.080Z,2.70
2022-11-24T00:42:33.697Z,2.78
2022-11-24T00:45:12.912Z,2.70
2022-11-24T00:47:41.873Z,2.53
2022-11-24T00:50:11.169Z,2.80
2022-11-24T00:52:38.692Z,2.40
2022-11-24T00:55:06.674Z,2.92
2022-11-24T00:57:35.858Z,3.30
2022-11-24T01:00:03.598Z,2.55
2022-11-24T01:02:31.244Z,2.78
2022-11-24T01:04:58.767Z,2.60
2022-11-24T01:07:27.762Z,3.35
2022-11-24T01:09:55.335Z,3.05
2022-11-24T01:12:22.851Z,2.78
2022-11-24T01:14:50.377Z,2.58
2022-11-24T01:17:18.476Z,2.72
2022-11-24T01:19:46.096Z,2.53
2022-11-24T01:22:13.690Z,2.67
2022-11-24T01:24:42.702Z,2.92
2022-11-24T01:27:10.263Z,2.28
2022-11-24T01:29:37.806Z,2.58
2022-11-24T01:32:05.600Z,3.28
2022-11-24T01:34:33.338Z,3.00
2022-11-24T01:37:01.352Z,2.95
2022-11-24T01:39:28.804Z,2.13
2022-11-24T01:42:00.782Z,2.90
2022-11-24T01:44:29.577Z,2.90
2022-11-24T01:46:59.373Z,2.88
2022-11-24T01:49:31.656Z,2.67
2022-11-24T01:52:01.554Z,3.25
2022-11-24T01:54:30.188Z,3.08
2022-11-24T01:57:01.042Z,2.95
2022-11-24T01:59:28.613Z,3.00
2022-11-24T02:01:56.282Z,2.28
2022-11-24T02:04:26.201Z,3.25
2022-11-24T02:06:53.794Z,2.33
2022-11-24T02:09:23.468Z,2.55
2022-11-24T02:11:51.094Z,2.97
2022-11-24T02:14:20.058Z,2.20
2022-11-24T02:16:49.827Z,2.42
2022-11-24T02:19:22.273Z,2.78
2022-11-24T02:21:49.763Z,3.67
2022-11-24T02:24:19.413Z,2.75
2022-11-24T02:26:48.554Z,3.60
2022-11-24T02:29:16.118Z,2.67
2022-11-24T02:31:46.920Z,2.63
2022-11-24T02:34:14.445Z,2.35
2022-11-24T02:36:42.034Z,3.25
2022-11-24T02:39:11.373Z,2.72
2022-11-24T02:41:38.856Z,2.70
2022-11-24T02:44:07.954Z,2.58
2022-11-24T02:46:35.712Z,2.85
2022-11-24T02:49:03.293Z,2.60
2022-11-24T02:51:31.042Z,2.70
2022-11-24T02:53:58.523Z,3.25
2022-11-24T02:56:26.395Z,2.85
2022-11-24T02:58:54.021Z,2.35
2022-11-24T03:01:23.105Z,2.63
2022-11-24T03:03:50.731Z,3.55
2022-11-24T03:06:18.242Z,2.20
2022-11-24T03:08:45.801Z,3.08
2022-11-24T03:11:13.361Z,2.75
2022-11-24T03:13:40.937Z,2.78
2022-11-24T03:16:09.245Z,2.38
2022-11-24T03:18:38.369Z,2.55
2022-11-24T03:21:06.261Z,2.53
2022-11-24T03:23:33.679Z,3.05
2022-11-24T03:26:08.113Z,2.28
2022-11-24T03:28:35.678Z,2.58
2022-11-24T03:31:03.290Z,2.75
2022-11-24T03:33:30.834Z,2.63
2022-11-24T03:35:59.830Z,3.05
2022-11-24T03:38:27.357Z,3.13
2022-11-24T03:40:54.800Z,3.53
2022-11-24T03:43:22.397Z,3.38
2022-11-24T03:45:49.973Z,2.67
2022-11-24T03:48:17.802Z,2.88
2022-11-24T03:50:52.048Z,2.75
2022-11-24T03:53:21.044Z,2.85
2022-11-24T03:55:48.563Z,3.53
2022-11-24T03:58:16.089Z,3.67
2022-11-24T04:00:43.606Z,3.67
2022-11-24T04:03:11.138Z,3.03
2022-11-24T04:05:38.772Z,3.40
2022-11-24T04:08:06.549Z,4.25
2022-11-24T04:10:36.194Z,3.15
2022-11-24T04:13:03.741Z,3.42
2022-11-24T04:15:31.265Z,3.10
2022-11-24T04:17:58.811Z,3.90
2022-11-24T04:20:26.390Z,3.42
2022-11-24T04:22:53.941Z,3.20
2022-11-24T04:25:21.459Z,3.70
2022-11-24T04:27:52.473Z,3.72
2022-11-24T04:30:20.231Z,3.00
2022-11-24T04:32:47.865Z,3.40
2022-11-24T04:35:15.459Z,3.10
2022-11-24T04:37:43.107Z,4.18
2022-11-24T04:40:11.108Z,3.72
2022-11-24T04:42:38.585Z,3.78
2022-11-24T04:45:08.399Z,3.75
2022-11-24T04:47:35.914Z,3.58
2022-11-24T04:50:03.553Z,3.67
2022-11-24T04:52:31.162Z,3.15
2022-11-24T04:54:58.724Z,3.60
2022-11-24T04:57:26.762Z,3.22
2022-11-24T04:59:54.280Z,2.92
2022-11-24T05:02:23.529Z,3.13
2022-11-24T05:04:51.055Z,4.55
2022-11-24T05:07:19.468Z,3.15
2022-11-24T05:09:58.813Z,3.28
2022-11-24T05:12:27.608Z,2.92
2022-11-24T05:14:55.064Z,3.47
2022-11-24T05:17:24.130Z,3.60
2022-11-24T05:19:51.731Z,3.42
2022-11-24T05:22:19.290Z,3.08
2022-11-24T05:24:46.847Z,4.20
2022-11-24T05:27:14.355Z,2.88
2022-11-24T05:29:41.892Z,3.70
2022-11-24T05:32:09.445Z,4.13
2022-11-24T05:34:38.609Z,3.92
2022-11-24T05:37:06.138Z,3.78
2022-11-24T05:39:33.687Z,4.00
2022-11-24T05:42:02.253Z,3.58
2022-11-24T05:44:29.806Z,3.60
2022-11-24T05:46:57.389Z,4.45
2022-11-24T05:49:25.002Z,3.47
2022-11-24T05:51:54.076Z,3.95
2022-11-24T05:54:21.552Z,3.80
2022-11-24T05:56:49.199Z,3.25
2022-11-24T05:59:16.709Z,4.03
2022-11-24T06:01:44.262Z,3.83
2022-11-24T06:04:12.008Z,3.65
2022-11-24T06:06:40.061Z,3.08
2022-11-24T06:09:09.013Z,3.35
2022-11-24T06:11:36.589Z,3.60
2022-11-24T06:14:08.321Z,3.67
2022-11-24T06:16:38.670Z,3.22
2022-11-24T06:19:06.258Z,4.25
2022-11-24T06:21:33.799Z,3.72
2022-11-24T06:24:01.495Z,3.30
2022-11-24T06:26:30.511Z,3.42
2022-11-24T06:28:58.101Z,3.70
2022-11-24T06:31:25.738Z,3.70
2022-11-24T06:33:53.240Z,3.70
2022-11-24T06:36:20.853Z,3.72
2022-11-24T06:38:48.336Z,3.85
2022-11-24T06:41:16.433Z,3.45
2022-11-24T06:43:45.429Z,3.92
2022-11-24T06:46:13.070Z,3.25
2022-11-24T06:48:40.604Z,2.95
2022-11-24T06:51:09.357Z,3.90
2022-11-24T06:53:37.443Z,3.28
2022-11-24T06:56:06.693Z,2.83
2022-11-24T06:58:35.863Z,2.85
2022-11-24T07:01:04.935Z,3.05
2022-11-24T07:03:32.661Z,3.70
2022-11-24T07:06:00.361Z,2.97
2022-11-24T07:08:29.019Z,3.20
2022-11-24T07:10:56.531Z,2.95
2022-11-24T07:13:24.053Z,3.05
2022-11-24T07:15:51.573Z,3.00
2022-11-24T07:18:20.571Z,2.63
2022-11-24T07:20:48.204Z,2.95
2022-11-24T07:23:15.771Z,3.13
2022-11-24T07:25:43.358Z,3.45
2022-11-24T07:28:10.936Z,2.83
2022-11-24T07:30:38.500Z,3.63
2022-11-24T07:33:06.106Z,2.88
2022-11-24T07:35:35.176Z,2.80
2022-11-24T07:38:02.727Z,3.20
2022-11-24T07:40:30.322Z,2.72
2022-11-24T07:43:00.191Z,3.05
2022-11-24T07:45:27.888Z,2.58
2022-11-24T07:47:55.509Z,3.40
2022-11-24T07:50:23.125Z,3.03
2022-11-24T07:52:52.269Z,2.55
2022-11-24T07:55:19.720Z,2.53
2022-11-24T07:57:47.284Z,2.47
2022-11-24T08:00:15.315Z,2.70
2022-11-24T08:02:43.939Z,2.67
2022-11-24T08:05:11.516Z,2.40
2022-11-24T08:07:39.103Z,2.65
2022-11-24T08:10:09.648Z,2.17
2022-11-24T08:12:37.119Z,2.42
2022-11-24T08:15:10.915Z,2.13
2022-11-24T08:17:39.094Z,2.72
2022-11-24T08:20:08.609Z,2.33
2022-11-24T08:22:36.233Z,1.95
2022-11-24T08:25:03.914Z,2.22
2022-11-24T08:27:32.900Z,2.88
2022-11-24T08:30:00.465Z,2.15
2022-11-24T08:32:28.171Z,1.92
2022-11-24T08:34:59.611Z,2.10
2022-11-24T08:37:36.688Z,2.22
2022-11-24T08:40:04.842Z,2.42
2022-11-24T08:42:33.859Z,1.70
2022-11-24T08:45:17.475Z,2.00
2022-11-24T08:47:52.562Z,2.15
2022-11-24T08:50:20.309Z,2.47
2022-11-24T08:52:47.844Z,1.95
2022-11-24T08:55:15.522Z,2.17
2022-11-24T08:57:44.514Z,2.97
2022-11-24T09:00:14.075Z,2.38
2022-11-24T09:02:41.666Z,2.47
2022-11-24T09:05:28.839Z,2.28
2022-11-24T09:07:57.224Z,2.10
2022-11-24T09:10:24.823Z,1.75
2022-11-24T09:12:53.965Z,1.85
2022-11-24T09:15:21.444Z,1.48
2022-11-24T09:17:49.023Z,1.40
2022-11-24T09:20:17.323Z,0.80
2022-11-24T09:22:44.914Z,0.90
2022-11-24T09:25:12.504Z,0.80
2022-11-24T09:27:40.001Z,1.00
2022-11-24T09:30:11.381Z,0.90
2022-11-24T09:32:38.894Z,0.88
2022-11-24T09:35:06.917Z,0.88
2022-11-24T09:37:34.532Z,0.80
2022-11-24T09:40:02.068Z,0.88
2022-11-24T09:42:36.940Z,1.52
2022-11-24T09:45:14.762Z,1.13
2022-11-24T09:47:55.526Z,1.73
2022-11-24T09:50:23.986Z,1.50
2022-11-24T09:52:54.056Z,1.77
2022-11-24T09:55:42.537Z,2.05
2022-11-24T09:58:29.958Z,1.70
2022-11-24T10:00:59.032Z,1.80
2022-11-24T10:03:28.211Z,1.88
2022-11-24T10:05:55.800Z,1.85
2022-11-24T10:08:31.057Z,1.70
2022-11-24T10:10:59.612Z,2.00
2022-11-24T10:13:39.176Z,2.35
2022-11-24T10:16:11.335Z,1.83
2022-11-24T10:18:45.707Z,1.75
2022-11-24T10:21:34.681Z,2.88
2022-11-24T10:24:19.677Z,2.60
2022-11-24T10:26:51.213Z,2.35
2022-11-24T10:29:21.499Z,2.47
2022-11-24T10:31:52.228Z,2.35
2022-11-24T10:34:23.046Z,2.92
2022-11-24T10:36:54.550Z,3.00
2022-11-24T10:39:23.800Z,2.42
2022-11-24T10:41:53.101Z,2.35
2022-11-24T10:44:20.662Z,3.05
2022-11-24T10:46:49.884Z,2.28
2022-11-24T10:49:19.620Z,2.55
2022-11-24T10:52:05.768Z,2.83
2022-11-24T10:54:33.348Z,1.67
2022-11-24T10:57:00.956Z,2.58
2022-11-24T10:59:34.893Z,2.45
2022-11-24T11:02:09.646Z,2.53
2022-11-24T11:04:37.485Z,2.72
2022-11-24T11:07:18.298Z,3.25
2022-11-24T11:09:46.032Z,2.78
2022-11-24T11:12:42.823Z,2.83
2022-11-24T11:15:32.092Z,2.35
2022-11-24T11:18:01.273Z,3.10
2022-11-24T11:20:30.564Z,3.22
2022-11-24T11:22:59.728Z,2.67
2022-11-24T11:25:30.644Z,3.05
2022-11-24T11:28:26.884Z,3.10
2022-11-24T11:31:18.974Z,3.22
2022-11-24T11:34:04.252Z,2.58
2022-11-24T11:36:33.804Z,2.50
2022-11-24T11:39:01.387Z,3.28
2022-11-24T11:41:32.956Z,2.58
2022-11-24T11:44:15.497Z,3.38
2022-11-24T11:46:43.174Z,2.80
2022-11-24T11:49:13.116Z,2.83
2022-11-24T11:51:48.559Z,2.45
2022-11-24T11:54:21.884Z,2.92
2022-11-24T11:56:50.756Z,2.60
2022-11-24T11:59:48.313Z,2.33
2022-11-24T12:02:52.923Z,3.25
2022-11-24T12:05:28.179Z,2.65
2022-11-24T12:08:10.807Z,2.97
2022-11-24T12:10:42.236Z,2.45
2022-11-24T12:13:34.466Z,3.33
2022-11-24T12:16:07.620Z,2.50
2022-11-24T12:18:58.770Z,2.43
2022-11-24T12:21:32.152Z,2.45
2022-11-24T12:24:08.664Z,2.45
2022-11-24T12:26:40.775Z,2.67
2022-11-24T12:29:38.070Z,2.50
2022-11-24T12:32:10.565Z,2.63
2022-11-24T12:34:44.550Z,2.65
2022-11-24T12:39:59.555Z,2.90
2022-11-24T12:42:32.848Z,2.65
2022-11-24T12:45:13.294Z,1.98
2022-11-24T12:47:59.976Z,2.10
2022-11-24T12:50:28.380Z,2.80
2022-11-24T12:52:58.996Z,2.50
2022-11-24T12:55:28.992Z,2.35
2022-11-24T12:57:59.827Z,2.55
2022-11-24T13:00:30.312Z,2.80
2022-11-24T13:03:12.510Z,2.70
2022-11-24T13:05:46.358Z,2.50
2022-11-24T13:08:14.309Z,2.53
2022-11-24T13:10:58.579Z,2.85
2022-11-24T13:13:29.835Z,2.92
2022-11-24T13:21:53.422Z,3.08
2022-11-24T13:24:26.273Z,2.50
2022-11-24T13:27:16.345Z,2.95
2022-11-24T13:29:44.064Z,3.03
2022-11-24T13:32:50.804Z,2.97
2022-11-24T13:35:18.519Z,3.28
2022-11-24T13:37:48.330Z,3.33
2022-11-24T13:40:54.170Z,2.50
2022-11-24T13:43:29.586Z,2.72
2022-11-24T13:45:57.291Z,2.60
2022-11-24T13:48:53.168Z,3.95
2022-11-24T13:51:24.386Z,2.38
2022-11-24T13:53:51.940Z,2.45
2022-11-24T13:56:36.959Z,2.70
2022-11-24T13:59:15.971Z,2.75
2022-11-24T14:01:43.659Z,2.90
2022-11-24T14:04:34.016Z,2.60
2022-11-24T14:07:07.774Z,2.25
2022-11-24T14:09:37.498Z,3.03
2022-11-24T14:12:08.655Z,2.83
2022-11-24T14:14:37.941Z,3.00
2022-11-24T14:17:13.731Z,2.88
2022-11-24T14:19:43.727Z,3.25
2022-11-24T14:22:15.980Z,2.97
2022-11-24T14:24:43.757Z,2.92
2022-11-24T14:27:14.511Z,2.50
2022-11-24T14:32:38.114Z,3.42
2022-11-24T14:35:21.323Z,3.10
2022-11-24T14:37:49.248Z,2.85
2022-11-24T14:40:38.368Z,3.08
2022-11-24T14:43:13.717Z,3.55
2022-11-24T14:45:53.855Z,3.17
2022-11-24T14:48:26.239Z,3.03
2022-11-24T14:50:54.010Z,3.13
2022-11-24T14:53:26.034Z,3.28
2022-11-24T14:56:08.703Z,3.80
2022-11-24T14:58:41.802Z,3.90
2022-11-24T15:01:11.738Z,4.47
2022-11-24T15:03:40.670Z,3.47
2022-11-24T15:06:15.976Z,4.70
2022-11-24T15:08:45.130Z,3.08
2022-11-24T15:11:12.830Z,3.75
2022-11-24T15:13:40.327Z,4.43
2022-11-24T15:16:09.468Z,3.60
2022-11-24T15:18:41.360Z,4.35
2022-11-24T15:21:11.677Z,3.97
2022-11-24T15:23:42.267Z,4.20
2022-11-24T15:26:30.580Z,5.03
2022-11-24T15:28:59.759Z,17.90
2022-11-24T15:31:27.419Z,25.80
2022-11-24T15:33:56.318Z,16.27
2022-11-24T15:36:23.873Z,20.60
2022-11-24T15:38:54.255Z,21.85
2022-11-24T15:41:24.169Z,58.40
2022-11-24T15:43:51.780Z,53.33
2022-11-24T15:46:19.191Z,59.28
2022-11-24T15:48:53.326Z,37.80
2022-11-24T15:51:23.208Z,29.85
2022-11-24T15:54:00.047Z,31.05
2022-11-24T15:56:35.316Z,29.25
2022-11-24T15:59:02.858Z,26.00
2022-11-24T16:01:31.860Z,19.23
2022-11-24T16:03:59.360Z,17.75
2022-11-24T16:06:28.344Z,16.55
2022-11-24T16:08:55.722Z,18.35
2022-11-24T16:11:25.548Z,23.35
2022-11-24T16:13:54.215Z,16.42
2022-11-24T16:16:22.002Z,13.43
2022-11-24T16:18:49.720Z,15.52
2022-11-24T16:21:17.282Z,12.60
2022-11-24T16:23:46.343Z,12.05
2022-11-24T16:26:13.697Z,11.63
2022-11-24T16:28:41.168Z,10.55
2022-11-24T16:31:09.037Z,10.95
2022-11-24T16:33:36.670Z,10.02
2022-11-24T16:36:04.733Z,9.77
2022-11-24T16:38:32.358Z,9.32
2022-11-24T16:41:05.284Z,10.52
2022-11-24T16:43:32.982Z,10.30
2022-11-24T16:46:05.180Z,9.30
2022-11-24T16:48:35.718Z,8.68
2022-11-24T16:51:06.045Z,8.95
2022-11-24T16:53:33.397Z,9.30
2022-11-24T16:56:02.686Z,8.50
2022-11-24T16:58:30.449Z,9.00
2022-11-24T17:01:03.826Z,8.63
2022-11-24T17:03:31.611Z,8.32
2022-11-24T17:05:59.763Z,8.40
2022-11-24T17:08:27.256Z,9.00
2022-11-24T17:10:54.626Z,7.32
2022-11-24T17:13:23.406Z,7.03
2022-11-24T17:15:54.507Z,7.25
2022-11-24T17:18:25.502Z,7.25
2022-11-24T17:20:53.308Z,7.07
2022-11-24T17:23:20.628Z,6.95
2022-11-24T17:25:48.528Z,6.68
2022-11-24T17:28:15.946Z,6.07
2022-11-24T17:30:45.730Z,10.38
2022-11-24T17:33:13.053Z,11.77
2022-11-24T17:35:40.620Z,7.18
2022-11-24T17:38:09.671Z,8.27
2022-11-24T17:40:37.003Z,7.32
2022-11-24T17:43:04.338Z,7.32
2022-11-24T17:45:31.695Z,6.38
2022-11-24T17:48:00.772Z,7.05
2022-11-24T17:50:28.488Z,7.13
2022-11-24T17:52:55.855Z,6.55
2022-11-24T17:55:23.411Z,6.13
2022-11-24T17:57:50.765Z,5.82
2022-11-24T18:00:19.136Z,6.10
2022-11-24T18:02:46.579Z,5.82
2022-11-24T18:05:15.824Z,5.60
2022-11-24T18:07:43.206Z,6.15
2022-11-24T18:10:11.489Z,16.90
2022-11-24T18:12:38.808Z,25.50
2022-11-24T18:15:07.494Z,21.13
2022-11-24T18:17:34.873Z,15.23
2022-11-24T18:20:02.473Z,12.93
2022-11-24T18:22:57.858Z,11.27
2022-11-24T18:25:18.903Z,9.40
2022-11-24T18:27:46.290Z,9.65
2022-11-24T18:30:14.106Z,10.93
2022-11-24T18:32:41.510Z,9.45
2022-11-24T18:35:09.688Z,8.18
2022-11-24T18:37:38.768Z,7.90
2022-11-24T18:40:08.284Z,9.48
2022-11-24T18:42:35.788Z,16.88
2022-11-24T18:45:03.583Z,17.95
2022-11-24T18:47:30.912Z,15.82
2022-11-24T18:49:58.493Z,13.68
2022-11-24T18:52:26.147Z,11.15
2022-11-24T18:54:55.176Z,15.85
2022-11-24T18:57:22.633Z,31.13
2022-11-24T18:59:50.062Z,30.33
2022-11-24T19:02:17.462Z,20.13
2022-11-24T19:04:44.843Z,15.38
2022-11-24T19:07:12.209Z,11.95
2022-11-24T19:09:39.541Z,10.18
2022-11-24T19:12:10.402Z,10.65
2022-11-24T19:14:38.472Z,11.25
2022-11-24T19:17:05.935Z,8.52
2022-11-24T19:19:33.530Z,7.75
2022-11-24T19:22:01.224Z,7.88
2022-11-24T19:24:28.995Z,8.10
2022-11-24T19:26:56.610Z,8.25
2022-11-24T19:29:25.526Z,7.80
2022-11-24T19:31:54.823Z,7.70
2022-11-24T19:34:22.485Z,7.65
2022-11-24T19:36:50.025Z,7.28
2022-11-24T19:39:17.473Z,7.18
2022-11-24T19:41:44.954Z,6.07
2022-11-24T19:44:12.579Z,6.03
2022-11-24T19:46:41.393Z,6.38
2022-11-24T19:49:08.847Z,5.95
2022-11-24T19:51:37.566Z,5.95
2022-11-24T19:54:06.166Z,5.68
2022-11-24T19:56:35.108Z,5.70
2022-11-24T19:59:02.756Z,9.15
2022-11-24T20:01:30.895Z,10.55
2022-11-24T20:04:00.530Z,8.88
2022-11-24T20:06:28.424Z,8.75
2022-11-24T20:08:56.741Z,10.75
2022-11-24T20:11:24.094Z,9.95
2022-11-24T20:13:51.457Z,8.50
2022-11-24T20:16:19.948Z,7.25
2022-11-24T20:18:47.836Z,5.70
2022-11-24T20:21:17.565Z,6.03
2022-11-24T20:23:46.150Z,25.27
2022-11-24T20:26:14.196Z,9.85
2022-11-24T20:28:41.759Z,70.72
2022-11-24T20:31:10.115Z,189.75
2022-11-24T20:33:37.685Z,139.10
2022-11-24T20:36:05.614Z,104.75
2022-11-24T20:38:34.423Z,75.43
2022-11-24T20:41:08.789Z,96.78
2022-11-24T20:43:37.030Z,65.07
2022-11-24T20:46:04.928Z,52.55
2022-11-24T20:48:33.428Z,44.38
2022-11-24T20:51:03.956Z,37.15
2022-11-24T20:53:33.024Z,34.20
2022-11-24T20:56:06.028Z,29.27
2022-11-24T20:58:34.327Z,31.23
2022-11-24T21:01:06.245Z,26.48
2022-11-24T21:03:36.215Z,22.65
2022-11-24T21:06:07.737Z,24.02
2022-11-24T21:08:37.548Z,26.33
2022-11-24T21:11:05.376Z,25.85
2022-11-24T21:13:33.061Z,23.77
2022-11-24T21:16:00.763Z,35.85
2022-11-24T21:18:28.299Z,29.67
2022-11-24T21:20:55.724Z,27.45
2022-11-24T21:23:23.252Z,30.52
2022-11-24T21:25:52.250Z,24.35
2022-11-24T21:28:19.896Z,21.88
2022-11-24T21:30:47.355Z,19.35
2022-11-24T21:33:14.743Z,18.13
2022-11-24T21:35:42.330Z,14.75
2022-11-24T21:38:09.926Z,14.23
2022-11-24T21:40:37.500Z,14.27
2022-11-24T21:43:06.315Z,13.43
2022-11-24T21:45:34.790Z,11.57
2022-11-24T21:48:02.141Z,13.07
2022-11-24T21:50:29.443Z,10.35
2022-11-24T21:53:00.639Z,10.35
2022-11-24T21:55:30.889Z,10.73
2022-11-24T21:57:58.375Z,8.07
2022-11-24T22:00:27.412Z,8.80
2022-11-24T22:02:55.119Z,8.25
2022-11-24T22:05:22.402Z,9.98
2022-11-24T22:07:49.737Z,11.93
2022-11-24T22:10:17.406Z,9.48
2022-11-24T22:12:44.724Z,8.10
2022-11-24T22:15:12.104Z,7.18
2022-11-24T22:17:41.096Z,6.90
2022-11-24T22:20:09.367Z,6.45
2022-11-24T22:22:36.672Z,5.40
2022-11-24T22:25:04.446Z,5.35
2022-11-24T22:27:31.732Z,5.40
2022-11-24T22:29:58.976Z,4.80
2022-11-24T22:32:26.268Z,5.43
2022-11-24T22:34:55.002Z,4.63
2022-11-24T22:37:22.347Z,4.00
2022-11-24T22:39:49.662Z,4.65
2022-11-24T22:42:16.927Z,4.15
2022-11-24T22:44:44.166Z,3.10
2022-11-24T22:47:11.554Z,4.22
2022-11-24T22:49:38.797Z,3.42
2022-11-24T22:52:07.505Z,3.42
2022-11-24T22:54:35.039Z,3.38
2022-11-24T22:57:02.679Z,3.03
2022-11-24T22:59:30.050Z,3.10
2022-11-24T23:01:57.382Z,2.80
2022-11-24T23:04:24.750Z,2.92
2022-11-24T23:06:52.073Z,3.20
2022-11-24T23:09:20.798Z,3.10
2022-11-24T23:11:48.032Z,2.90
2022-11-24T23:14:15.607Z,3.38
2022-11-24T23:16:42.978Z,2.92
2022-11-24T23:19:10.593Z,3.15
2022-11-24T23:21:38.246Z,2.88
2022-11-24T23:24:06.995Z,2.33
2022-11-24T23:26:36.879Z,3.58
2022-11-24T23:29:04.309Z,2.70
2022-11-24T23:31:31.620Z,2.72
2022-11-24T23:33:59.279Z,2.80
2022-11-24T23:36:26.476Z,2.35
2022-11-24T23:38:53.718Z,3.25
2022-11-24T23:41:21.903Z,2.63
2022-11-24T23:43:50.644Z,2.13
2022-11-24T23:46:18.528Z,2.30
2022-11-24T23:48:45.852Z,2.15
2022-11-24T23:51:13.743Z,2.05
2022-11-24T23:53:41.064Z,1.98
2022-11-24T23:56:08.401Z,3.42
2022-11-24T23:58:35.585Z,2.60
